createdAt,value
2019-05-13T04:36:56.404Z,9.97
2019-05-13T04:40:33.178Z,12.70
2019-05-13T04:51:43.547Z,17.00
2019-05-13T04:55:06.886Z,12.97
2019-05-13T04:58:32.242Z,21.07
2019-05-13T05:06:06.607Z,12.67
2019-05-13T05:11:02.199Z,13.43
2019-05-13T05:15:19.791Z,13.37
2019-05-13T05:19:47.395Z,8.13
2019-05-13T05:24:07.865Z,12.60
2019-05-13T05:28:13.973Z,15.33
2019-05-13T05:32:16.080Z,12.87
2019-05-13T05:36:52.009Z,12.77
2019-05-13T05:40:31.037Z,16.37
2019-05-13T05:43:45.587Z,10.17
2019-05-13T05:47:11.289Z,13.50
2019-05-13T05:50:36.006Z,14.57
2019-05-13T05:54:02.584Z,15.20
2019-05-13T05:57:31.391Z,12.37
2019-05-13T06:00:56.013Z,15.53
2019-05-13T06:04:21.860Z,17.90
2019-05-13T06:07:45.226Z,15.47
2019-05-13T06:11:11.620Z,24.83
2019-05-13T06:14:35.438Z,19.83
2019-05-13T06:17:58.755Z,22.53
2019-05-13T06:21:22.541Z,20.03
2019-05-13T06:24:45.706Z,17.40
2019-05-13T06:28:08.900Z,15.50
2019-05-13T06:31:32.474Z,16.93
2019-05-13T06:34:55.755Z,17.70
2019-05-13T06:38:18.985Z,16.17
2019-05-13T06:41:42.153Z,17.43
2019-05-13T06:45:05.654Z,18.57
2019-05-13T06:48:29.374Z,22.83
2019-05-13T06:51:52.894Z,15.73
2019-05-13T06:55:16.219Z,15.10
2019-05-13T06:58:41.536Z,13.23
2019-05-13T07:02:04.707Z,11.03
2019-05-13T07:05:27.832Z,10.67
2019-05-13T07:08:52.128Z,13.37
2019-05-13T07:12:15.595Z,8.70
2019-05-13T07:15:41.413Z,11.03
2019-05-13T07:19:04.258Z,12.97
2019-05-13T07:22:27.845Z,9.13
2019-05-13T07:25:52.478Z,11.70
2019-05-13T07:29:16.669Z,10.40
2019-05-13T07:32:42.090Z,7.30
2019-05-13T07:36:05.499Z,8.20
2019-05-13T07:39:28.932Z,9.77
2019-05-13T07:42:52.362Z,8.37
2019-05-13T07:46:15.537Z,10.33
2019-05-13T07:49:38.906Z,9.60
2019-05-13T07:53:02.465Z,5.37
2019-05-13T07:56:25.746Z,7.00
2019-05-13T07:59:48.941Z,14.37
2019-05-13T08:03:12.615Z,10.07
2019-05-13T08:06:35.970Z,14.17
2019-05-13T08:10:00.933Z,6.37
2019-05-13T08:13:24.695Z,10.47
2019-05-13T08:16:47.886Z,8.50
2019-05-13T08:20:12.548Z,9.67
2019-05-13T08:23:36.764Z,10.83
2019-05-13T08:27:02.082Z,8.80
2019-05-13T08:30:25.218Z,12.27
2019-05-13T08:33:48.441Z,9.87
2019-05-13T08:37:11.673Z,7.13
2019-05-13T08:40:34.914Z,14.90
2019-05-13T08:43:58.088Z,6.00
2019-05-13T08:47:22.377Z,10.80
2019-05-13T08:50:46.754Z,7.17
2019-05-13T08:54:11.448Z,12.70
2019-05-13T08:57:34.974Z,7.93
2019-05-13T09:00:59.133Z,7.85
2019-05-13T09:04:23.638Z,20.77
2019-05-13T09:07:48.148Z,17.27
2019-05-13T09:11:12.024Z,23.20
2019-05-13T09:14:35.479Z,17.00
2019-05-13T09:17:59.129Z,34.13
2019-05-13T09:21:22.605Z,28.95
2019-05-13T09:24:45.866Z,15.20
2019-05-13T09:28:09.218Z,22.45
2019-05-13T09:31:32.620Z,4.20
2019-05-13T09:34:55.878Z,3.35
2019-05-13T09:38:21.883Z,7.60
2019-05-13T09:41:44.827Z,5.35
2019-05-13T09:45:08.591Z,8.53
2019-05-13T09:48:32.243Z,4.58
2019-05-13T09:51:55.472Z,4.60
2019-05-13T09:55:26.533Z,7.62
2019-05-13T09:58:43.831Z,7.05
2019-05-13T10:02:07.170Z,7.03
2019-05-13T10:05:31.653Z,8.28
2019-05-13T10:08:55.247Z,9.25
2019-05-13T10:12:18.412Z,7.47
2019-05-13T10:15:42.691Z,23.02
2019-05-13T10:19:05.938Z,9.25
2019-05-13T10:22:29.080Z,6.33
2019-05-13T10:25:58.599Z,6.35
2019-05-13T10:29:22.606Z,9.43
2019-05-13T10:32:45.987Z,13.78
2019-05-13T10:36:11.911Z,7.97
2019-05-13T10:39:35.340Z,6.92
2019-05-13T10:42:58.732Z,3.22
2019-05-13T10:49:47.038Z,6.50
2019-05-13T10:53:12.335Z,2.17
2019-05-13T10:56:35.558Z,2.50
2019-05-13T11:00:02.363Z,5.78
2019-05-13T11:03:24.286Z,3.45
2019-05-13T11:06:47.695Z,3.83
2019-05-13T11:10:13.259Z,3.47
2019-05-13T11:13:54.068Z,2.55
2019-05-13T11:17:02.082Z,4.47
2019-05-13T11:20:25.909Z,4.60
2019-05-13T11:23:49.598Z,4.28
2019-05-13T11:27:14.620Z,5.33
2019-05-13T11:30:37.937Z,5.15
2019-05-13T11:34:02.379Z,3.98
2019-05-13T11:37:25.614Z,5.35
2019-05-13T11:40:51.790Z,3.80
2019-05-13T11:44:16.768Z,2.27
2019-05-13T11:47:40.931Z,2.45
2019-05-13T11:51:04.505Z,2.65
2019-05-13T11:54:28.963Z,3.08
2019-05-13T11:57:53.120Z,4.72
2019-05-13T12:01:16.518Z,2.35
2019-05-13T12:04:43.076Z,1.95
2019-05-13T12:08:04.810Z,4.55
2019-05-13T12:11:28.163Z,3.35
2019-05-13T12:15:20.285Z,2.55
2019-05-13T12:18:16.724Z,4.90
2019-05-13T12:21:45.299Z,3.47
2019-05-13T12:25:05.945Z,3.55
2019-05-13T12:28:29.325Z,3.52
2019-05-13T12:31:53.379Z,2.67
2019-05-13T12:35:16.901Z,2.80
2019-05-13T12:38:44.015Z,4.37
2019-05-13T12:42:05.346Z,2.62
2019-05-13T12:45:28.884Z,3.00
2019-05-13T12:48:52.118Z,2.50
2019-05-13T12:52:15.815Z,2.30
2019-05-13T12:55:40.098Z,2.72
2019-05-13T12:59:03.609Z,2.05
2019-05-13T13:02:26.925Z,2.30
2019-05-13T13:05:50.207Z,2.42
2019-05-13T13:09:13.491Z,3.65
2019-05-13T13:12:36.760Z,5.20
2019-05-13T13:16:03.496Z,4.15
2019-05-13T13:19:27.522Z,2.50
2019-05-13T13:22:50.993Z,2.33
2019-05-13T13:26:23.429Z,2.83
2019-05-13T13:30:02.846Z,3.33
2019-05-13T13:33:18.672Z,2.20
2019-05-13T13:36:46.092Z,5.30
2019-05-13T13:40:08.401Z,4.67
2019-05-13T13:43:37.032Z,3.60
2019-05-13T13:46:57.061Z,2.92
2019-05-13T13:50:24.502Z,2.65
2019-05-13T13:53:45.518Z,4.30
2019-05-13T13:57:13.130Z,3.65
2019-05-13T14:00:45.175Z,3.75
2019-05-13T14:04:02.809Z,2.95
2019-05-13T14:06:26.940Z,5.50
2019-05-13T14:07:34.499Z,4.85
2019-05-13T14:10:51.466Z,3.75
2019-05-13T14:14:15.066Z,3.30
2019-05-13T14:17:41.593Z,3.33
2019-05-13T14:21:43.496Z,2.52
2019-05-13T14:25:07.399Z,2.92
2019-05-13T14:28:32.746Z,4.03
2019-05-13T14:31:56.006Z,1.75
2019-05-13T14:35:21.790Z,2.42
2019-05-13T14:38:44.852Z,2.58
2019-05-13T14:42:08.058Z,3.02
2019-05-13T14:45:31.887Z,5.05
2019-05-13T14:48:55.427Z,2.85
2019-05-13T14:52:18.796Z,2.90
2019-05-13T14:55:43.795Z,4.10
2019-05-13T14:59:07.026Z,2.52
2019-05-13T15:02:32.070Z,2.85
2019-05-13T15:05:55.738Z,2.75
2019-05-13T15:09:19.164Z,10.25
2019-05-13T15:12:42.657Z,3.55
2019-05-13T15:16:06.191Z,3.85
2019-05-13T15:19:31.607Z,1.82
2019-05-13T15:22:54.925Z,2.70
2019-05-13T15:26:18.720Z,3.70
2019-05-13T15:29:43.309Z,3.77
2019-05-13T15:33:06.491Z,4.92
2019-05-13T15:36:31.528Z,2.62
2019-05-13T15:39:54.685Z,5.25
2019-05-13T15:43:17.923Z,3.90
2019-05-13T15:46:43.779Z,3.10
2019-05-13T15:50:07.133Z,3.30
2019-05-13T15:53:32.043Z,3.52
2019-05-13T15:56:55.725Z,4.37
2019-05-13T16:00:18.988Z,4.15
2019-05-13T16:03:42.428Z,5.75
2019-05-13T16:07:06.079Z,4.50
2019-05-13T16:10:29.503Z,4.58
2019-05-13T16:13:52.816Z,2.87
2019-05-13T16:17:17.066Z,2.05
2019-05-13T16:20:44.949Z,3.37
2019-05-13T16:24:05.361Z,7.17
2019-05-13T16:27:31.050Z,3.22
2019-05-13T16:30:53.918Z,3.98
2019-05-13T16:38:22.024Z,4.85
2019-05-13T16:41:47.272Z,2.83
2019-05-13T16:45:12.501Z,3.55
2019-05-13T17:01:12.002Z,4.25
2019-05-13T17:08:28.074Z,5.40
2019-05-13T17:20:06.040Z,3.75
2019-05-13T17:35:42.463Z,4.83
2019-05-13T17:43:24.275Z,4.50
2019-05-13T17:47:01.745Z,4.97
2019-05-13T17:58:42.797Z,3.00
2019-05-13T18:02:06.847Z,2.60
2019-05-13T18:09:27.677Z,4.17
2019-05-13T18:21:11.911Z,5.80
2019-05-13T18:28:58.033Z,5.83
2019-05-13T18:40:21.797Z,5.70
2019-05-13T18:44:04.479Z,3.02
2019-05-13T18:47:40.250Z,4.47
2019-05-13T18:51:23.299Z,8.53
2019-05-13T18:55:02.052Z,10.32
2019-05-13T18:58:45.071Z,5.53
2019-05-13T19:02:21.370Z,3.15
2019-05-13T19:05:45.330Z,7.25
2019-05-13T19:09:21.707Z,2.90
2019-05-13T19:13:04.692Z,4.85
2019-05-13T19:16:42.166Z,5.90
2019-05-13T19:20:17.933Z,5.55
2019-05-13T19:24:02.079Z,2.58
2019-05-13T19:27:44.812Z,1.50
2019-05-13T19:31:22.120Z,1.98
2019-05-13T19:35:46.415Z,3.27
2019-05-13T19:39:22.804Z,4.08
2019-05-13T19:43:08.149Z,1.60
2019-05-13T19:46:31.690Z,2.33
2019-05-13T19:50:07.493Z,3.50
2019-05-13T19:53:51.671Z,2.27
2019-05-13T19:57:34.258Z,3.10
2019-05-13T20:01:11.650Z,3.33
2019-05-13T20:04:35.121Z,6.42
2019-05-13T20:08:21.187Z,4.40
2019-05-13T20:12:21.255Z,2.87
2019-05-13T20:16:04.070Z,7.25
2019-05-13T20:19:27.335Z,4.97
2019-05-13T20:23:11.889Z,2.05
2019-05-13T20:26:47.131Z,2.02
2019-05-13T20:30:23.583Z,3.50
2019-05-13T20:34:06.190Z,3.27
2019-05-13T20:37:42.601Z,2.08
2019-05-13T20:41:17.902Z,1.83
2019-05-13T20:45:02.390Z,2.77
2019-05-13T20:48:32.338Z,1.57
2019-05-13T20:52:15.538Z,2.20
2019-05-13T20:56:11.829Z,2.00
2019-05-13T20:59:54.353Z,2.57
2019-05-13T21:03:17.484Z,2.20
2019-05-13T21:06:42.224Z,1.87
2019-05-13T21:10:05.944Z,1.85
2019-05-13T21:37:51.241Z,3.43
2019-05-13T21:41:27.377Z,6.43
2019-05-13T21:45:11.161Z,8.03
2019-05-13T21:48:53.491Z,4.43
2019-05-13T21:52:37.183Z,2.00
2019-05-13T21:56:13.014Z,5.77
2019-05-13T21:59:55.713Z,5.10
2019-05-13T22:03:33.559Z,2.40
2019-05-13T22:07:17.445Z,3.67
2019-05-13T22:10:41.639Z,3.70
2019-05-13T22:14:35.370Z,4.63
2019-05-13T22:18:11.389Z,3.37
2019-05-13T22:21:47.504Z,2.53
2019-05-13T22:25:30.339Z,6.40
2019-05-13T22:29:07.546Z,5.53
2019-05-13T22:32:52.170Z,4.67
2019-05-13T22:36:34.059Z,3.93
2019-05-13T22:39:57.543Z,5.33
2019-05-13T22:43:33.699Z,2.33
2019-05-13T22:47:16.335Z,1.77
2019-05-13T22:50:53.485Z,1.90
2019-05-13T22:54:36.043Z,3.00
2019-05-13T22:58:12.097Z,1.57
2019-05-13T23:01:54.793Z,1.50
2019-05-13T23:05:30.878Z,1.80
2019-05-13T23:09:13.486Z,2.47
2019-05-13T23:12:51.400Z,6.97
2019-05-13T23:16:33.798Z,3.33
2019-05-13T23:20:11.053Z,1.70
2019-05-13T23:23:53.672Z,1.67
2019-05-13T23:27:31.979Z,1.70
2019-05-13T23:31:14.159Z,2.93
2019-05-13T23:34:51.258Z,2.00
2019-05-13T23:38:35.017Z,1.70
2019-05-13T23:42:12.187Z,4.03
2019-05-13T23:45:54.904Z,1.63
2019-05-13T23:49:31.676Z,2.80
2019-05-13T23:52:55.072Z,2.53
2019-05-13T23:56:31.111Z,2.50
2019-05-13T23:59:54.244Z,2.00
